Time;durP1;ratioP1;P1;durP2;ratioP2;P2;SDS_P1;SDS_P2;PMS_P1;PMS_P2;Temp;Humidity;BMP_temperature;BMP_pressure;BME280_temperature;BME280_humidity;BME280_pressure;Samples;Min_cycle;Max_cycle;Signal;HPM_P1;HPM_P2
2023/09/12 00:00:18;;;;;;;;;;;;;;;;;;5108594;27;19935;-83
2023/09/12 00:02:43;;;;;;;;;;;;;;;;;;5095626;28;19912;-83
2023/09/12 00:05:09;;;;;;;;;;;;;;;;;;5084460;28;19915;-84
2023/09/12 00:07:34;;;;;;;;;;;;;;;;;;5097264;28;19919;-84
2023/09/12 00:09:59;;;;;;;;;;;;;;;;;;5093454;28;19908;-84
2023/09/12 00:12:25;;;;;;;;;;;;;;;;;;5095888;28;19961;-83
2023/09/12 00:14:50;;;;;;;;;;;;;;;;;;5098905;28;20347;-83
2023/09/12 00:17:16;;;;;;;;;;;;;;;;;;5095711;28;19919;-83
2023/09/12 00:19:41;;;;;;;;;;;;;;;;;;5096532;28;19915;-83
2023/09/12 00:22:06;;;;;;;;;;;;;;;;;;5095461;28;19904;-83
2023/09/12 00:24:32;;;;;;;;;;;;;;;;;;5096216;28;19961;-84
2023/09/12 00:26:57;;;;;;;;;;;;;;;;;;5096000;28;19973;-83
2023/09/12 00:29:22;;;;;;;;;;;;;;;;;;5094948;28;20050;-83
2023/09/12 00:31:48;;;;;;;;;;;;;;;;;;5095583;28;19984;-83
2023/09/12 00:34:13;;;;;;;;;;;;;;;;;;5095835;28;19931;-83
2023/09/12 00:36:38;;;;;;;;;;;;;;;;;;5100419;28;20379;-83
2023/09/12 00:39:04;;;;;;;;;;;;;;;;;;5093947;28;19931;-83
2023/09/12 00:41:29;;;;;;;;;;;;;;;;;;5094012;28;20280;-83
2023/09/12 00:43:54;;;;;;;;;;;;;;;;;;5096416;27;19998;-83
2023/09/12 00:46:20;;;;;;;;;;;;;;;;;;5088125;28;19919;-83
2023/09/12 00:48:45;;;;;;;;;;;;;;;;;;5095831;28;20328;-83
2023/09/12 00:51:10;;;;;;;;;;;;;;;;;;5095086;28;20329;-83
2023/09/12 00:53:36;;;;;;;;;;;;;;;;;;5096539;28;19907;-83
2023/09/12 00:56:01;;;;;;;;;;;;;;;;;;5094891;28;19915;-83
2023/09/12 00:58:26;;;;;;;;;;;;;;;;;;5077696;28;19961;-83
2023/09/12 01:00:52;;;;;;;;;;;;;;;;;;5093887;28;20275;-83
2023/09/12 01:03:17;;;;;;;;;;;;;;;;;;5101148;28;19908;-83
2023/09/12 01:05:42;;;;;;;;;;;;;;;;;;5095287;28;19912;-84
2023/09/12 01:08:08;;;;;;;;;;;;;;;;;;5093632;28;19957;-83
2023/09/12 01:10:34;;;;;;;;;;;;;;;;;;5094877;28;19934;-83
2023/09/12 01:13:00;;;;;;;;;;;;;;;;;;5123482;27;20375;-83
2023/09/12 01:15:25;;;;;;;;;;;;;;;;;;5098229;28;19955;-83
2023/09/12 01:17:50;;;;;;;;;;;;;;;;;;5105070;28;19953;-83
2023/09/12 01:20:16;;;;;;;;;;;;;;;;;;5094836;28;19961;-84
2023/09/12 01:22:41;;;;;;;;;;;;;;;;;;5094280;28;19912;-83
2023/09/12 01:25:06;;;;;;;;;;;;;;;;;;5094294;28;19903;-84
2023/09/12 01:27:32;;;;;;;;;;;;;;;;;;5100958;27;19920;-83
2023/09/12 01:29:57;;;;;;;;;;;;;;;;;;5094554;28;19912;-82
2023/09/12 01:32:23;;;;;;;;;;;;;;;;;;5095459;28;19918;-83
2023/09/12 01:34:48;;;;;;;;;;;;;;;;;;5094968;28;19942;-81
2023/09/12 01:37:14;;;;;;;;;;;;;;;;;;5093753;28;19908;-83
2023/09/12 01:39:40;;;;;;;;;;;;;;;;;;5110900;28;19919;-84
2023/09/12 01:42:05;;;;;;;;;;;;;;;;;;5109013;28;19943;-83
2023/09/12 01:44:30;;;;;;;;;;;;;;;;;;5099426;28;19969;-83
2023/09/12 01:46:55;;;;;;;;;;;;;;;;;;5095123;28;19915;-83
2023/09/12 01:49:21;;;;;;;;;;;;;;;;;;5104066;27;19912;-83
2023/09/12 01:51:46;;;;;;;;;;;;;;;;;;5075721;28;19912;-83
2023/09/12 01:54:12;;;;;;;;;;;;;;;;;;5077313;28;19970;-84
2023/09/12 01:56:37;;;;;;;;;;;;;;;;;;5096233;28;19915;-83
2023/09/12 01:59:02;;;;;;;;;;;;;;;;;;5092837;28;19961;-83
2023/09/12 02:01:27;;;;;;;;;;;;;;;;;;5092766;28;20334;-83
2023/09/12 02:03:53;;;;;;;;;;;;;;;;;;5093281;28;19919;-83
2023/09/12 02:06:18;;;;;;;;;;;;;;;;;;5092512;28;20279;-83
2023/09/12 02:08:44;;;;;;;;;;;;;;;;;;5092875;28;19919;-82
2023/09/12 02:11:09;;;;;;;;;;;;;;;;;;5104338;28;20294;-83
2023/09/12 02:13:34;;;;;;;;;;;;;;;;;;5092444;28;20287;-83
2023/09/12 02:16:00;;;;;;;;;;;;;;;;;;5094225;28;19908;-84
2023/09/12 02:18:25;;;;;;;;;;;;;;;;;;5102169;28;20015;-84
2023/09/12 02:20:51;;;;;;;;;;;;;;;;;;5091527;28;19923;-84
2023/09/12 02:23:16;;;;;;;;;;;;;;;;;;5094887;28;19907;-84
2023/09/12 02:25:41;;;;;;;;;;;;;;;;;;5093319;28;19912;-84
2023/09/12 02:28:07;;;;;;;;;;;;;;;;;;5102797;28;19908;-84
2023/09/12 02:30:32;;;;;;;;;;;;;;;;;;5089888;28;20007;-84
2023/09/12 02:32:58;;;;;;;;;;;;;;;;;;5102840;28;19965;-84
2023/09/12 02:35:23;;;;;;;;;;;;;;;;;;5090981;28;19911;-84
2023/09/12 02:37:48;;;;;;;;;;;;;;;;;;5073177;28;19919;-83
2023/09/12 02:40:14;;;;;;;;;;;;;;;;;;5092420;28;19951;-82
2023/09/12 02:42:39;;;;;;;;;;;;;;;;;;5103447;28;19908;-83
2023/09/12 02:45:05;;;;;;;;;;;;;;;;;;5088936;28;19916;-84
2023/09/12 02:47:31;;;;;;;;;;;;;;;;;;5092843;28;19908;-84
2023/09/12 02:49:56;;;;;;;;;;;;;;;;;;5092385;28;19950;-84
2023/09/12 02:52:21;;;;;;;;;;;;;;;;;;5110788;28;20366;-84
2023/09/12 02:54:47;;;;;;;;;;;;;;;;;;5079742;28;20384;-83
2023/09/12 02:57:13;;;;;;;;;;;;;;;;;;5119637;27;19908;-83
2023/09/12 02:59:38;;;;;;;;;;;;;;;;;;5114621;27;19916;-84
2023/09/12 03:02:03;;;;;;;;;;;;;;;;;;5107382;27;19900;-83
2023/09/12 03:04:29;;;;;;;;;;;;;;;;;;5095881;28;19997;-84
2023/09/12 03:06:54;;;;;;;;;;;;;;;;;;5095936;28;19998;-83
2023/09/12 03:09:20;;;;;;;;;;;;;;;;;;5095510;28;19912;-83
2023/09/12 03:11:45;;;;;;;;;;;;;;;;;;5096678;28;19916;-83
2023/09/12 03:14:11;;;;;;;;;;;;;;;;;;5112672;28;19935;-82
2023/09/12 03:16:37;;;;;;;;;;;;;;;;;;5095892;28;19991;-82
2023/09/12 03:19:03;;;;;;;;;;;;;;;;;;5093089;28;19969;-83
2023/09/12 03:21:28;;;;;;;;;;;;;;;;;;5096978;27;19916;-83
2023/09/12 03:23:54;;;;;;;;;;;;;;;;;;5091579;28;20534;-82
2023/09/12 03:26:19;;;;;;;;;;;;;;;;;;5112971;28;19920;-82
2023/09/12 03:28:45;;;;;;;;;;;;;;;;;;5112757;28;19944;-83
2023/09/12 03:31:13;;;;;;;;;;;;;;;;;;5118540;27;19908;-83
2023/09/12 03:33:40;;;;;;;;;;;;;;;;;;5098951;28;20014;-83
2023/09/12 03:36:05;;;;;;;;;;;;;;;;;;5078746;28;19981;-83
2023/09/12 03:38:30;;;;;;;;;;;;;;;;;;5079268;28;19950;-83
2023/09/12 03:40:56;;;;;;;;;;;;;;;;;;5078803;28;19912;-83
2023/09/12 03:43:21;;;;;;;;;;;;;;;;;;5097264;28;19930;-83
2023/09/12 03:45:46;;;;;;;;;;;;;;;;;;5078638;28;20367;-82
2023/09/12 03:48:12;;;;;;;;;;;;;;;;;;5096172;28;20386;-82
2023/09/12 03:50:37;;;;;;;;;;;;;;;;;;5096003;28;19908;-83
2023/09/12 03:53:02;;;;;;;;;;;;;;;;;;5118430;27;19942;-83
2023/09/12 03:55:28;;;;;;;;;;;;;;;;;;5111734;28;19912;-83
2023/09/12 03:57:53;;;;;;;;;;;;;;;;;;5096111;28;20002;-83
2023/09/12 04:00:19;;;;;;;;;;;;;;;;;;5105651;28;19915;-84
2023/09/12 04:02:47;;;;;;;;;;;;;;;;;;5093272;28;20395;-83
2023/09/12 04:05:12;;;;;;;;;;;;;;;;;;5076892;28;19915;-84
2023/09/12 04:07:38;;;;;;;;;;;;;;;;;;5090191;28;19923;-83
2023/09/12 04:10:03;;;;;;;;;;;;;;;;;;5069088;28;19912;-84
2023/09/12 04:12:28;;;;;;;;;;;;;;;;;;5098318;27;19920;-84
2023/09/12 04:14:55;;;;;;;;;;;;;;;;;;5099694;28;19908;-84
2023/09/12 04:17:20;;;;;;;;;;;;;;;;;;5085533;28;19912;-84
2023/09/12 04:19:45;;;;;;;;;;;;;;;;;;5104974;28;19981;-83
2023/09/12 04:22:11;;;;;;;;;;;;;;;;;;5106039;27;20271;-83
2023/09/12 04:24:36;;;;;;;;;;;;;;;;;;5107495;27;19953;-84
2023/09/12 04:27:03;;;;;;;;;;;;;;;;;;5102854;27;19924;-84
2023/09/12 04:29:28;;;;;;;;;;;;;;;;;;5102747;28;19908;-84
2023/09/12 04:31:59;;;;;;;;;;;;;;;;;;5099985;28;20399;-84
2023/09/12 04:34:24;;;;;;;;;;;;;;;;;;5095736;28;19919;-84
2023/09/12 04:36:50;;;;;;;;;;;;;;;;;;5091697;28;20367;-84
2023/09/12 04:39:15;;;;;;;;;;;;;;;;;;5105786;27;20362;-84
2023/09/12 04:41:40;;;;;;;;;;;;;;;;;;5079911;28;19915;-84
2023/09/12 04:44:06;;;;;;;;;;;;;;;;;;5095399;28;20382;-82
2023/09/12 04:46:31;;;;;;;;;;;;;;;;;;5104341;28;19966;-85
2023/09/12 04:48:56;;;;;;;;;;;;;;;;;;5077891;28;19919;-84
2023/09/12 04:51:22;;;;;;;;;;;;;;;;;;5090021;28;19919;-83
2023/09/12 04:53:51;;;;;;;;;;;;;;;;;;5078644;28;19912;-84
2023/09/12 04:56:16;;;;;;;;;;;;;;;;;;5074702;28;20376;-84
2023/09/12 04:58:42;;;;;;;;;;;;;;;;;;5101233;28;19919;-85
2023/09/12 05:01:07;;;;;;;;;;;;;;;;;;5094708;28;20323;-83
2023/09/12 05:03:33;;;;;;;;;;;;;;;;;;5107805;28;19911;-85
2023/09/12 05:05:58;;;;;;;;;;;;;;;;;;5103750;28;20031;-83
2023/09/12 05:08:24;;;;;;;;;;;;;;;;;;5108798;28;19919;-85
2023/09/12 05:10:49;;;;;;;;;;;;;;;;;;5093359;28;19908;-84
2023/09/12 05:13:15;;;;;;;;;;;;;;;;;;5093767;28;20387;-85
2023/09/12 05:15:40;;;;;;;;;;;;;;;;;;5093056;28;20255;-85
2023/09/12 05:18:05;;;;;;;;;;;;;;;;;;5074728;28;19923;-84
2023/09/12 05:20:31;;;;;;;;;;;;;;;;;;5105583;28;20396;-84
2023/09/12 05:22:56;;;;;;;;;;;;;;;;;;5089557;28;19912;-84
2023/09/12 05:25:21;;;;;;;;;;;;;;;;;;5092660;28;20003;-84
2023/09/12 05:27:47;;;;;;;;;;;;;;;;;;5091987;28;19927;-84
2023/09/12 05:30:12;;;;;;;;;;;;;;;;;;5098644;27;19909;-83
2023/09/12 05:32:37;;;;;;;;;;;;;;;;;;5104049;28;20145;-84
2023/09/12 05:35:03;;;;;;;;;;;;;;;;;;5108546;27;19915;-84
2023/09/12 05:37:28;;;;;;;;;;;;;;;;;;5107508;27;19923;-84
2023/09/12 05:39:54;;;;;;;;;;;;;;;;;;5074232;28;20031;-84
2023/09/12 05:42:20;;;;;;;;;;;;;;;;;;5107690;28;19912;-84
2023/09/12 05:44:46;;;;;;;;;;;;;;;;;;5108487;27;19944;-84
2023/09/12 05:47:12;;;;;;;;;;;;;;;;;;5099883;27;19994;-84
2023/09/12 05:49:37;;;;;;;;;;;;;;;;;;5098096;28;19908;-84
2023/09/12 05:52:02;;;;;;;;;;;;;;;;;;5091384;28;19966;-84
2023/09/12 05:54:28;;;;;;;;;;;;;;;;;;5107548;28;19912;-84
2023/09/12 05:56:53;;;;;;;;;;;;;;;;;;5090268;28;19912;-84
2023/09/12 05:59:19;;;;;;;;;;;;;;;;;;5091183;28;19912;-84
2023/09/12 06:01:45;;;;;;;;;;;;;;;;;;5103776;28;20030;-84
2023/09/12 06:04:10;;;;;;;;;;;;;;;;;;5103248;28;19915;-83
2023/09/12 06:06:35;;;;;;;;;;;;;;;;;;5091670;28;19912;-85
2023/09/12 06:09:01;;;;;;;;;;;;;;;;;;5091226;28;19919;-84
2023/09/12 06:11:26;;;;;;;;;;;;;;;;;;5091158;28;20042;-84
2023/09/12 06:13:51;;;;;;;;;;;;;;;;;;5091888;28;19965;-84
2023/09/12 06:16:17;;;;;;;;;;;;;;;;;;5091241;28;19912;-84
2023/09/12 06:18:42;;;;;;;;;;;;;;;;;;5092028;28;19954;-84
2023/09/12 06:21:08;;;;;;;;;;;;;;;;;;5090464;28;19919;-84
2023/09/12 06:23:33;;;;;;;;;;;;;;;;;;5091726;28;19908;-84
2023/09/12 06:25:59;;;;;;;;;;;;;;;;;;5091246;28;19919;-84
2023/09/12 06:28:24;;;;;;;;;;;;;;;;;;5091325;28;19914;-84
2023/09/12 06:30:49;;;;;;;;;;;;;;;;;;5090722;28;20313;-84
2023/09/12 06:33:15;;;;;;;;;;;;;;;;;;5091466;28;19912;-85
2023/09/12 06:35:40;;;;;;;;;;;;;;;;;;5090409;28;19957;-84
2023/09/12 06:38:05;;;;;;;;;;;;;;;;;;5091534;28;20337;-84
2023/09/12 06:40:31;;;;;;;;;;;;;;;;;;5090703;28;20015;-84
2023/09/12 06:42:56;;;;;;;;;;;;;;;;;;5091273;28;19942;-84
2023/09/12 06:45:21;;;;;;;;;;;;;;;;;;5091227;28;19916;-84
2023/09/12 06:47:47;;;;;;;;;;;;;;;;;;5090012;28;19915;-84
2023/09/12 06:50:12;;;;;;;;;;;;;;;;;;5088442;28;19916;-84
2023/09/12 06:52:37;;;;;;;;;;;;;;;;;;5094082;28;19913;-84
2023/09/12 06:55:03;;;;;;;;;;;;;;;;;;5089109;28;19961;-84
2023/09/12 06:57:28;;;;;;;;;;;;;;;;;;5091055;28;19912;-84
2023/09/12 06:59:54;;;;;;;;;;;;;;;;;;5089831;28;19912;-84
2023/09/12 07:02:19;;;;;;;;;;;;;;;;;;5091780;28;19934;-84
2023/09/12 07:04:45;;;;;;;;;;;;;;;;;;5104589;28;19926;-84
2023/09/12 07:07:10;;;;;;;;;;;;;;;;;;5092101;28;20376;-85
2023/09/12 07:09:36;;;;;;;;;;;;;;;;;;5090792;28;19969;-83
2023/09/12 07:12:01;;;;;;;;;;;;;;;;;;5090895;28;19939;-84
2023/09/12 07:14:26;;;;;;;;;;;;;;;;;;5090545;28;19912;-84
2023/09/12 07:16:52;;;;;;;;;;;;;;;;;;5106806;28;20043;-85
2023/09/12 07:19:17;;;;;;;;;;;;;;;;;;5091002;28;19912;-85
2023/09/12 07:21:42;;;;;;;;;;;;;;;;;;5091035;28;19908;-85
2023/09/12 07:24:08;;;;;;;;;;;;;;;;;;5089522;28;19915;-84
2023/09/12 07:26:33;;;;;;;;;;;;;;;;;;5091527;28;19967;-85
2023/09/12 07:29:02;;;;;;;;;;;;;;;;;;5091058;28;19911;-85
2023/09/12 07:31:27;;;;;;;;;;;;;;;;;;5091122;28;19998;-85
2023/09/12 07:33:53;;;;;;;;;;;;;;;;;;5090316;28;19951;-85
2023/09/12 07:36:18;;;;;;;;;;;;;;;;;;5091247;28;19912;-84
2023/09/12 07:38:45;;;;;;;;;;;;;;;;;;5092779;28;19913;-83
2023/09/12 07:41:10;;;;;;;;;;;;;;;;;;5103444;28;19908;-85
2023/09/12 07:43:35;;;;;;;;;;;;;;;;;;5093764;28;19931;-84
2023/09/12 07:46:01;;;;;;;;;;;;;;;;;;5076375;28;19955;-85
2023/09/12 07:48:27;;;;;;;;;;;;;;;;;;5093584;28;20370;-85
2023/09/12 07:50:53;;;;;;;;;;;;;;;;;;5094561;28;19958;-84
2023/09/12 07:53:18;;;;;;;;;;;;;;;;;;5094327;28;19920;-84
2023/09/12 07:55:47;;;;;;;;;;;;;;;;;;5094251;28;19915;-84
2023/09/12 07:58:12;;;;;;;;;;;;;;;;;;5092674;28;20306;-84
2023/09/12 08:00:37;;;;;;;;;;;;;;;;;;5093759;28;19915;-85
2023/09/12 08:03:03;;;;;;;;;;;;;;;;;;5093158;28;19912;-84
2023/09/12 08:05:28;;;;;;;;;;;;;;;;;;5109381;28;19912;-85
2023/09/12 08:07:53;;;;;;;;;;;;;;;;;;5097707;27;19916;-85
2023/09/12 08:10:19;;;;;;;;;;;;;;;;;;5095441;28;19915;-85
2023/09/12 08:12:44;;;;;;;;;;;;;;;;;;5092679;28;19970;-86
2023/09/12 08:15:09;;;;;;;;;;;;;;;;;;5103533;28;19994;-85
2023/09/12 08:18:00;;;;;;;;;;;;;;;;;;5092661;28;20065;-86
2023/09/12 08:20:26;;;;;;;;;;;;;;;;;;5092379;28;20003;-85
2023/09/12 08:22:51;;;;;;;;;;;;;;;;;;5093771;28;20278;-84
2023/09/12 08:25:16;;;;;;;;;;;;;;;;;;5091516;28;19912;-86
2023/09/12 08:27:43;;;;;;;;;;;;;;;;;;5092297;28;20007;-85
2023/09/12 08:30:08;;;;;;;;;;;;;;;;;;5092457;28;19912;-85
2023/09/12 08:32:33;;;;;;;;;;;;;;;;;;5093652;27;19935;-85
2023/09/12 08:34:59;;;;;;;;;;;;;;;;;;5087618;28;19912;-85
2023/09/12 08:37:24;;;;;;;;;;;;;;;;;;5093334;28;19954;-85
2023/09/12 08:39:52;;;;;;;;;;;;;;;;;;5092897;28;19957;-85
2023/09/12 08:42:17;;;;;;;;;;;;;;;;;;5092925;28;20294;-85
2023/09/12 08:44:43;;;;;;;;;;;;;;;;;;5099992;27;19923;-85
2023/09/12 08:47:09;;;;;;;;;;;;;;;;;;5099355;28;20023;-85
2023/09/12 08:49:34;;;;;;;;;;;;;;;;;;5093020;28;19919;-86
2023/09/12 08:52:00;;;;;;;;;;;;;;;;;;5094022;28;19912;-85
2023/09/12 08:54:25;;;;;;;;;;;;;;;;;;5092900;28;19920;-85
2023/09/12 08:56:50;;;;;;;;;;;;;;;;;;5093105;28;19953;-85
2023/09/12 08:59:16;;;;;;;;;;;;;;;;;;5092083;28;19912;-86
2023/09/12 09:01:41;;;;;;;;;;;;;;;;;;5109833;27;19951;-85
2023/09/12 09:04:07;;;;;;;;;;;;;;;;;;5088711;28;19935;-85
2023/09/12 09:06:32;;;;;;;;;;;;;;;;;;5092889;28;19966;-86
2023/09/12 09:08:58;;;;;;;;;;;;;;;;;;5104432;28;19912;-85
2023/09/12 09:11:27;;;;;;;;;;;;;;;;;;5091557;28;19965;-85
2023/09/12 09:13:52;;;;;;;;;;;;;;;;;;5096800;27;20283;-86
2023/09/12 09:16:18;;;;;;;;;;;;;;;;;;5091546;28;19916;-86
2023/09/12 09:18:44;;;;;;;;;;;;;;;;;;5091262;28;20022;-86
2023/09/12 09:21:09;;;;;;;;;;;;;;;;;;5103834;28;20358;-86
2023/09/12 09:23:34;;;;;;;;;;;;;;;;;;5086269;28;19934;-86
2023/09/12 09:26:00;;;;;;;;;;;;;;;;;;5107893;28;20516;-86
2023/09/12 09:28:26;;;;;;;;;;;;;;;;;;5092900;28;19908;-86
2023/09/12 09:30:53;;;;;;;;;;;;;;;;;;5092401;28;20010;-85
2023/09/12 09:33:18;;;;;;;;;;;;;;;;;;5090760;28;19946;-86
2023/09/12 09:35:44;;;;;;;;;;;;;;;;;;5091186;28;19912;-86
2023/09/12 09:38:09;;;;;;;;;;;;;;;;;;5092073;28;19907;-86
2023/09/12 09:40:35;;;;;;;;;;;;;;;;;;5089732;28;20295;-85
2023/09/12 09:43:01;;;;;;;;;;;;;;;;;;5091670;28;20271;-86
2023/09/12 09:45:26;;;;;;;;;;;;;;;;;;5091450;28;19916;-86
2023/09/12 09:47:52;;;;;;;;;;;;;;;;;;5092990;28;19907;-86
2023/09/12 09:50:17;;;;;;;;;;;;;;;;;;5092788;28;20018;-86
2023/09/12 09:52:42;;;;;;;;;;;;;;;;;;5091964;28;20413;-86
2023/09/12 09:55:08;;;;;;;;;;;;;;;;;;5091081;28;19916;-86
2023/09/12 09:57:33;;;;;;;;;;;;;;;;;;5090371;28;19912;-87
2023/09/12 09:59:58;;;;;;;;;;;;;;;;;;5100876;27;20396;-86
2023/09/12 10:02:24;;;;;;;;;;;;;;;;;;5091741;28;20408;-86
2023/09/12 10:04:49;;;;;;;;;;;;;;;;;;5090911;28;19943;-86
2023/09/12 10:07:14;;;;;;;;;;;;;;;;;;5107872;27;19908;-87
2023/09/12 10:09:39;;;;;;;;;;;;;;;;;;5090904;28;20002;-86
2023/09/12 10:12:05;;;;;;;;;;;;;;;;;;5092192;28;19912;-86
2023/09/12 10:14:30;;;;;;;;;;;;;;;;;;5090544;28;20390;-86
2023/09/12 10:16:56;;;;;;;;;;;;;;;;;;5107973;28;19915;-87
2023/09/12 10:19:21;;;;;;;;;;;;;;;;;;5090472;28;19912;-86
2023/09/12 10:21:46;;;;;;;;;;;;;;;;;;5092261;28;19933;-86
2023/09/12 10:24:12;;;;;;;;;;;;;;;;;;5090732;28;19960;-86
2023/09/12 10:26:39;;;;;;;;;;;;;;;;;;5092089;28;19919;-86
2023/09/12 10:29:04;;;;;;;;;;;;;;;;;;5092135;28;19912;-86
2023/09/12 10:31:30;;;;;;;;;;;;;;;;;;5092689;28;20393;-86
2023/09/12 10:33:55;;;;;;;;;;;;;;;;;;5092260;28;19912;-87
2023/09/12 10:36:20;;;;;;;;;;;;;;;;;;5092079;28;20329;-86
2023/09/12 10:38:46;;;;;;;;;;;;;;;;;;5092345;28;19918;-85
2023/09/12 10:41:11;;;;;;;;;;;;;;;;;;5092651;28;19908;-88
2023/09/12 10:43:37;;;;;;;;;;;;;;;;;;5093000;28;20018;-85
2023/09/12 10:46:03;;;;;;;;;;;;;;;;;;5074042;28;19915;-88
2023/09/12 10:48:28;;;;;;;;;;;;;;;;;;5092510;28;19922;-86
2023/09/12 10:50:54;;;;;;;;;;;;;;;;;;5088410;28;19907;-86
2023/09/12 10:53:23;;;;;;;;;;;;;;;;;;5091966;28;20410;-86
2023/09/12 10:55:49;;;;;;;;;;;;;;;;;;5091340;28;19916;-86
2023/09/12 10:58:14;;;;;;;;;;;;;;;;;;5091184;28;19918;-86
2023/09/12 11:00:40;;;;;;;;;;;;;;;;;;5092037;28;19912;-87
2023/09/12 11:03:05;;;;;;;;;;;;;;;;;;5085193;28;19919;-86
2023/09/12 11:05:33;;;;;;;;;;;;;;;;;;5091851;28;19908;-86
2023/09/12 11:07:58;;;;;;;;;;;;;;;;;;5090770;28;19916;-87
2023/09/12 11:10:24;;;;;;;;;;;;;;;;;;5092029;28;19915;-87
2023/09/12 11:12:50;;;;;;;;;;;;;;;;;;5091082;28;19969;-87
2023/09/12 11:15:15;;;;;;;;;;;;;;;;;;5096226;28;19908;-87
2023/09/12 11:17:40;;;;;;;;;;;;;;;;;;5096131;28;19944;-87
2023/09/12 11:20:10;;;;;;;;;;;;;;;;;;5112056;28;19908;-87
2023/09/12 11:22:35;;;;;;;;;;;;;;;;;;5095500;28;19919;-87
2023/09/12 11:25:00;;;;;;;;;;;;;;;;;;5104128;27;19912;-88
2023/09/12 11:27:26;;;;;;;;;;;;;;;;;;5094127;28;19920;-88
2023/09/12 11:29:51;;;;;;;;;;;;;;;;;;5096060;28;19915;-88
2023/09/12 11:32:16;;;;;;;;;;;;;;;;;;5094834;28;19916;-87
2023/09/12 11:34:42;;;;;;;;;;;;;;;;;;5095988;28;19907;-88
2023/09/12 11:37:07;;;;;;;;;;;;;;;;;;5095764;28;19919;-88
2023/09/12 11:39:32;;;;;;;;;;;;;;;;;;5096125;28;19908;-88
2023/09/12 11:41:58;;;;;;;;;;;;;;;;;;5096016;28;19916;-87
2023/09/12 11:44:23;;;;;;;;;;;;;;;;;;5096013;28;20024;-86
2023/09/12 11:46:52;;;;;;;;;;;;;;;;;;5095811;28;19916;-86
2023/09/12 11:49:17;;;;;;;;;;;;;;;;;;5077595;28;20021;-86
2023/09/12 11:51:42;;;;;;;;;;;;;;;;;;5096564;28;20010;-86
2023/09/12 11:54:08;;;;;;;;;;;;;;;;;;5096549;28;20314;-86
2023/09/12 11:56:33;;;;;;;;;;;;;;;;;;5095948;28;19911;-86
2023/09/12 11:59:00;;;;;;;;;;;;;;;;;;5095419;28;20018;-86
2023/09/12 12:01:26;;;;;;;;;;;;;;;;;;5099204;28;19919;-86
2023/09/12 12:03:52;;;;;;;;;;;;;;;;;;5095194;28;20451;-86
2023/09/12 12:06:19;;;;;;;;;;;;;;;;;;5094457;28;19951;-87
2023/09/12 12:08:45;;;;;;;;;;;;;;;;;;5094306;28;19911;-86
2023/09/12 12:11:11;;;;;;;;;;;;;;;;;;5097873;28;19911;-86
2023/09/12 12:13:36;;;;;;;;;;;;;;;;;;5105442;27;20394;-87
2023/09/12 12:16:02;;;;;;;;;;;;;;;;;;5095001;28;19918;-86
2023/09/12 12:18:27;;;;;;;;;;;;;;;;;;5095172;28;19942;-86
2023/09/12 12:20:53;;;;;;;;;;;;;;;;;;5095051;28;19916;-87
2023/09/12 12:23:18;;;;;;;;;;;;;;;;;;5093963;28;20364;-87
2023/09/12 12:25:43;;;;;;;;;;;;;;;;;;5094187;28;19924;-87
2023/09/12 12:28:09;;;;;;;;;;;;;;;;;;5094041;28;19908;-87
2023/09/12 12:30:34;;;;;;;;;;;;;;;;;;5110379;28;20259;-87
2023/09/12 12:32:59;;;;;;;;;;;;;;;;;;5110342;28;19912;-87
2023/09/12 12:35:25;;;;;;;;;;;;;;;;;;5095908;28;19912;-87
2023/09/12 12:37:51;;;;;;;;;;;;;;;;;;5103132;28;20381;-87
2023/09/12 12:40:16;;;;;;;;;;;;;;;;;;5094980;28;19931;-87
2023/09/12 12:42:42;;;;;;;;;;;;;;;;;;5111191;28;19942;-87
2023/09/12 12:45:07;;;;;;;;;;;;;;;;;;5094964;28;19916;-87
2023/09/12 12:47:32;;;;;;;;;;;;;;;;;;5094750;28;19947;-87
2023/09/12 12:49:58;;;;;;;;;;;;;;;;;;5095181;28;20372;-87
2023/09/12 12:52:24;;;;;;;;;;;;;;;;;;5093435;28;20379;-86
2023/09/12 12:54:49;;;;;;;;;;;;;;;;;;5092235;28;19916;-86
2023/09/12 12:57:14;;;;;;;;;;;;;;;;;;5102775;27;19908;-86
2023/09/12 12:59:40;;;;;;;;;;;;;;;;;;5093654;28;19927;-86
2023/09/12 13:02:05;;;;;;;;;;;;;;;;;;5092736;28;19919;-86
2023/09/12 13:04:30;;;;;;;;;;;;;;;;;;5092425;28;19916;-86
2023/09/12 13:06:56;;;;;;;;;;;;;;;;;;5076557;28;19951;-87
2023/09/12 13:09:22;;;;;;;;;;;;;;;;;;5092163;28;19962;-86
2023/09/12 13:11:47;;;;;;;;;;;;;;;;;;5093707;28;19912;-86
2023/09/12 13:14:12;;;;;;;;;;;;;;;;;;5092141;28;19915;-86
2023/09/12 13:16:40;;;;;;;;;;;;;;;;;;5086132;28;19912;-87
2023/09/12 13:19:05;;;;;;;;;;;;;;;;;;5075370;28;20317;-86
2023/09/12 13:21:32;;;;;;;;;;;;;;;;;;5082679;28;19941;-86
2023/09/12 13:23:58;;;;;;;;;;;;;;;;;;5092960;28;19942;-85
2023/09/12 13:26:23;;;;;;;;;;;;;;;;;;5093433;28;19934;-86
2023/09/12 13:28:48;;;;;;;;;;;;;;;;;;5092289;28;19916;-86
2023/09/12 13:31:14;;;;;;;;;;;;;;;;;;5093407;28;19908;-86
2023/09/12 13:33:39;;;;;;;;;;;;;;;;;;5093981;28;19916;-85
2023/09/12 13:36:05;;;;;;;;;;;;;;;;;;5076173;28;19962;-86
2023/09/12 13:38:30;;;;;;;;;;;;;;;;;;5093505;28;19934;-87
2023/09/12 13:40:55;;;;;;;;;;;;;;;;;;5093381;28;19915;-87
2023/09/12 13:43:22;;;;;;;;;;;;;;;;;;5108719;28;20382;-86
2023/09/12 13:45:48;;;;;;;;;;;;;;;;;;5099189;28;19908;-86
2023/09/12 13:48:13;;;;;;;;;;;;;;;;;;5095316;28;19919;-86
2023/09/12 13:50:39;;;;;;;;;;;;;;;;;;5093392;28;20414;-86
2023/09/12 13:53:06;;;;;;;;;;;;;;;;;;5092553;28;19920;-87
2023/09/12 13:55:31;;;;;;;;;;;;;;;;;;5095080;28;20256;-87
2023/09/12 13:57:57;;;;;;;;;;;;;;;;;;5109188;28;19987;-87
2023/09/12 14:00:22;;;;;;;;;;;;;;;;;;5093802;28;19915;-86
2023/09/12 14:02:48;;;;;;;;;;;;;;;;;;5090911;28;20428;-86
2023/09/12 14:05:13;;;;;;;;;;;;;;;;;;5092652;28;19931;-86
2023/09/12 14:07:39;;;;;;;;;;;;;;;;;;5090470;28;19955;-86
2023/09/12 14:10:04;;;;;;;;;;;;;;;;;;5092490;28;20003;-85
2023/09/12 14:12:30;;;;;;;;;;;;;;;;;;5092441;28;20022;-87
2023/09/12 14:14:55;;;;;;;;;;;;;;;;;;5101937;27;19915;-86
2023/09/12 14:17:21;;;;;;;;;;;;;;;;;;5088732;28;19957;-86
2023/09/12 14:19:46;;;;;;;;;;;;;;;;;;5092307;28;19918;-86
2023/09/12 14:22:11;;;;;;;;;;;;;;;;;;5091567;28;20291;-86
2023/09/12 14:24:37;;;;;;;;;;;;;;;;;;5092195;28;19908;-86
2023/09/12 14:27:02;;;;;;;;;;;;;;;;;;5101801;28;20017;-87
2023/09/12 14:29:29;;;;;;;;;;;;;;;;;;5107295;27;19910;-87
2023/09/12 14:31:57;;;;;;;;;;;;;;;;;;5105626;28;19916;-86
2023/09/12 14:34:22;;;;;;;;;;;;;;;;;;5108260;28;19908;-86
2023/09/12 14:36:48;;;;;;;;;;;;;;;;;;5107405;28;19969;-84
2023/09/12 14:39:14;;;;;;;;;;;;;;;;;;5104906;28;20382;-85
2023/09/12 14:41:40;;;;;;;;;;;;;;;;;;5103258;28;19950;-84
2023/09/12 14:44:05;;;;;;;;;;;;;;;;;;5107105;28;19911;-85
2023/09/12 14:46:30;;;;;;;;;;;;;;;;;;5106594;28;19912;-85
2023/09/12 14:48:56;;;;;;;;;;;;;;;;;;5110632;28;19907;-85
2023/09/12 14:51:21;;;;;;;;;;;;;;;;;;5099146;28;19918;-85
2023/09/12 14:53:46;;;;;;;;;;;;;;;;;;5092960;28;19908;-85
2023/09/12 14:56:12;;;;;;;;;;;;;;;;;;5101410;27;19912;-85
2023/09/12 14:58:38;;;;;;;;;;;;;;;;;;5102894;28;19914;-85
2023/09/12 15:01:03;;;;;;;;;;;;;;;;;;5105141;28;20427;-85
2023/09/12 15:03:29;;;;;;;;;;;;;;;;;;5102894;28;19908;-85
2023/09/12 15:05:54;;;;;;;;;;;;;;;;;;5099764;28;19920;-85
2023/09/12 15:08:19;;;;;;;;;;;;;;;;;;5098972;28;19990;-85
2023/09/12 15:10:45;;;;;;;;;;;;;;;;;;5092649;28;20715;-84
2023/09/12 15:13:11;;;;;;;;;;;;;;;;;;5099368;28;20326;-84
2023/09/12 15:15:36;;;;;;;;;;;;;;;;;;5097461;28;19916;-85
2023/09/12 15:18:02;;;;;;;;;;;;;;;;;;5110720;27;19908;-85
2023/09/12 15:20:28;;;;;;;;;;;;;;;;;;5099340;28;19912;-85
2023/09/12 15:22:53;;;;;;;;;;;;;;;;;;5081772;28;19931;-86
2023/09/12 15:25:18;;;;;;;;;;;;;;;;;;5090916;28;19916;-85
2023/09/12 15:27:44;;;;;;;;;;;;;;;;;;5096116;28;20402;-85
2023/09/12 15:30:10;;;;;;;;;;;;;;;;;;5110520;27;19918;-86
2023/09/12 15:32:36;;;;;;;;;;;;;;;;;;5099663;28;20002;-85
2023/09/12 15:35:03;;;;;;;;;;;;;;;;;;5098859;28;19912;-85
2023/09/12 15:37:29;;;;;;;;;;;;;;;;;;5090426;28;19958;-86
2023/09/12 15:39:55;;;;;;;;;;;;;;;;;;5099090;28;20312;-86
2023/09/12 15:42:20;;;;;;;;;;;;;;;;;;5098156;28;19908;-85
2023/09/12 15:44:46;;;;;;;;;;;;;;;;;;5091672;28;19916;-85
2023/09/12 15:47:11;;;;;;;;;;;;;;;;;;5094596;28;19947;-86
2023/09/12 15:49:37;;;;;;;;;;;;;;;;;;5092653;28;20414;-84
2023/09/12 15:52:03;;;;;;;;;;;;;;;;;;5080305;28;20018;-85
2023/09/12 15:54:30;;;;;;;;;;;;;;;;;;5100874;28;19920;-85
2023/09/12 15:56:55;;;;;;;;;;;;;;;;;;5096262;28;19914;-85
2023/09/12 15:59:20;;;;;;;;;;;;;;;;;;5091321;28;19912;-85
2023/09/12 16:01:46;;;;;;;;;;;;;;;;;;5094159;28;20268;-85
2023/09/12 16:04:11;;;;;;;;;;;;;;;;;;5094737;28;19916;-85
2023/09/12 16:06:37;;;;;;;;;;;;;;;;;;5094327;28;20006;-85
2023/09/12 16:09:03;;;;;;;;;;;;;;;;;;5089698;28;19918;-85
2023/09/12 16:11:28;;;;;;;;;;;;;;;;;;5099676;28;19911;-84
2023/09/12 16:13:54;;;;;;;;;;;;;;;;;;5094423;28;19918;-85
2023/09/12 16:16:20;;;;;;;;;;;;;;;;;;5087502;28;19915;-85
2023/09/12 16:18:45;;;;;;;;;;;;;;;;;;5095681;28;19912;-84
2023/09/12 16:21:11;;;;;;;;;;;;;;;;;;5086934;28;20019;-84
2023/09/12 16:23:36;;;;;;;;;;;;;;;;;;5082133;28;20355;-85
2023/09/12 16:26:02;;;;;;;;;;;;;;;;;;5112944;27;19959;-85
2023/09/12 16:28:27;;;;;;;;;;;;;;;;;;5095684;28;19954;-85
2023/09/12 16:30:52;;;;;;;;;;;;;;;;;;5095444;28;19919;-84
2023/09/12 16:33:18;;;;;;;;;;;;;;;;;;5108285;27;20398;-83